Mablethorpe, United Kingdom
Current Conditions -  °F | °C
As of 5:50 AM on Monday 24 Nov 2014 (Local Time) from EGXS Reporting Station
Clear Clear  
Wind Chill: 31°   Ceiling: Unl
Heat Index: 36°   Visibility: 6mi
Dew Point: 34°   Wind: 6mph
Humidity: 93%   Direction: 200°SSW
Pressure: 30.21"   Gusts: NA
Location:  53.34°N, 0.24°E
Report Text: EGXS 240550Z AUTO 20005KT 9999 // NCD 02/01 Q1023
Loading
Personal Weather Stations






























Interactive Weather Map New forecast layout! Learn more

10-Day Weather Forecast

Advertisements
Track Severe Weather on mobile